createdAt,value
2017-01-20T00:00:13.722Z,1030.41
2017-01-20T00:00:39.823Z,1030.41
2017-01-20T00:01:05.936Z,1030.4
2017-01-20T00:01:32.042Z,1030.41
2017-01-20T00:01:58.142Z,1030.38
2017-01-20T00:02:24.247Z,1030.38
2017-01-20T00:02:50.339Z,1030.43
2017-01-20T00:03:16.428Z,1030.4
2017-01-20T00:03:42.543Z,1030.36
2017-01-20T00:04:08.638Z,1030.37
2017-01-20T00:04:34.724Z,1030.38
2017-01-20T00:05:00.832Z,1030.39
2017-01-20T00:05:26.936Z,1030.38
2017-01-20T00:05:53.021Z,1030.39
2017-01-20T00:06:19.121Z,1030.35
2017-01-20T00:06:45.226Z,1030.37
2017-01-20T00:07:11.315Z,1030.34
2017-01-20T00:07:37.419Z,1030.36
2017-01-20T00:08:03.525Z,1030.3
2017-01-20T00:08:29.611Z,1030.31
2017-01-20T00:08:55.708Z,1030.36
2017-01-20T00:09:21.819Z,1030.37
2017-01-20T00:09:47.910Z,1030.37
2017-01-20T00:10:13.996Z,1030.36
2017-01-20T00:10:40.110Z,1030.35
2017-01-20T00:11:06.208Z,1030.35
2017-01-20T00:11:32.346Z,1030.36
2017-01-20T00:11:58.547Z,1030.32
2017-01-20T00:12:24.635Z,1030.33
2017-01-20T00:12:50.732Z,1030.28
2017-01-20T00:13:16.828Z,1030.29
2017-01-20T00:13:42.920Z,1030.3
2017-01-20T00:14:09.170Z,1030.28
2017-01-20T00:14:35.266Z,1030.28
2017-01-20T00:15:01.371Z,1030.29
2017-01-20T00:15:27.482Z,1030.31
2017-01-20T00:15:53.581Z,1030.28
2017-01-20T00:16:19.673Z,1030.31
2017-01-20T00:16:45.776Z,1030.31
2017-01-20T00:17:11.888Z,1030.29
2017-01-20T00:17:37.974Z,1030.26
2017-01-20T00:18:04.070Z,1030.3
2017-01-20T00:18:30.196Z,1030.33
2017-01-20T00:18:56.292Z,1030.33
2017-01-20T00:19:22.393Z,1030.34
2017-01-20T00:19:48.484Z,1030.32
2017-01-20T00:20:14.587Z,1030.31
2017-01-20T00:20:40.700Z,1030.24
2017-01-20T00:21:06.784Z,1030.27
2017-01-20T00:21:32.935Z,1030.3
2017-01-20T00:21:59.066Z,1030.29
2017-01-20T00:22:25.133Z,1030.27
2017-01-20T00:22:51.229Z,1030.25
2017-01-20T00:23:17.338Z,1030.27
2017-01-20T00:23:43.432Z,1030.23
2017-01-20T00:24:09.529Z,1030.26
2017-01-20T00:24:35.630Z,1030.27
2017-01-20T00:25:01.733Z,1030.23
2017-01-20T00:25:27.845Z,1030.29
2017-01-20T00:25:53.931Z,1030.24
2017-01-20T00:26:20.030Z,1030.27
2017-01-20T00:26:46.133Z,1030.32
2017-01-20T00:27:12.230Z,1030.26
2017-01-20T00:27:38.317Z,1030.31
2017-01-20T00:28:04.427Z,1030.26
2017-01-20T00:28:30.878Z,1030.24
2017-01-20T00:28:56.971Z,1030.25
2017-01-20T00:29:23.075Z,1030.21
2017-01-20T00:29:49.170Z,1030.19
2017-01-20T00:30:15.277Z,1030.17
2017-01-20T00:30:41.370Z,1030.2
2017-01-20T00:31:07.459Z,1030.18
2017-01-20T00:31:33.570Z,1030.13
2017-01-20T00:31:59.670Z,1030.13
2017-01-20T00:32:25.761Z,1030.13
2017-01-20T00:32:51.869Z,1030.15
2017-01-20T00:33:17.967Z,1030.16
2017-01-20T00:33:44.053Z,1030.12
2017-01-20T00:34:10.155Z,1030.1
2017-01-20T00:34:36.270Z,1030.11
2017-01-20T00:35:02.352Z,1030.12
2017-01-20T00:35:28.453Z,1030.11
2017-01-20T00:35:54.542Z,1030.07
2017-01-20T00:36:20.655Z,1030.07
2017-01-20T00:36:46.757Z,1030.08
2017-01-20T00:37:12.852Z,1030.08
2017-01-20T00:37:38.948Z,1030.04
2017-01-20T00:38:05.054Z,1030.06
2017-01-20T00:38:31.143Z,1030.08
2017-01-20T00:38:57.246Z,1030.03
2017-01-20T00:39:23.356Z,1030.04
2017-01-20T00:39:49.443Z,1030.07
2017-01-20T00:40:15.555Z,1030.04
2017-01-20T00:40:41.648Z,1030.02
2017-01-20T00:41:07.744Z,1030.09
2017-01-20T00:41:33.853Z,1030
2017-01-20T00:41:59.938Z,1030.06
2017-01-20T00:42:26.035Z,1030.05
2017-01-20T00:42:52.142Z,1030.02
2017-01-20T00:43:18.234Z,1030.04
2017-01-20T00:43:44.337Z,1030.05
2017-01-20T00:44:10.440Z,1030.05
2017-01-20T00:44:36.537Z,1030
2017-01-20T00:45:02.622Z,1029.98
2017-01-20T00:45:28.734Z,1030.02
2017-01-20T00:45:54.831Z,1030.01
2017-01-20T00:46:20.916Z,1030.03
2017-01-20T00:46:47.026Z,1030.01
2017-01-20T00:47:13.117Z,1030
2017-01-20T00:47:39.223Z,1030.03
2017-01-20T00:48:05.320Z,1029.99
2017-01-20T00:48:31.413Z,1029.96
2017-01-20T00:48:57.516Z,1029.97
2017-01-20T00:49:23.611Z,1030
2017-01-20T00:49:49.705Z,1030.01
2017-01-20T00:50:15.816Z,1030
2017-01-20T00:50:41.913Z,1030.03
2017-01-20T00:51:08.000Z,1029.98
2017-01-20T00:51:34.107Z,1029.98
2017-01-20T00:52:00.215Z,1030.02
2017-01-20T00:52:26.296Z,1030.02
2017-01-20T00:52:52.401Z,1030.02
2017-01-20T00:53:18.508Z,1029.97
2017-01-20T00:53:44.597Z,1030
2017-01-20T00:54:10.696Z,1029.97
2017-01-20T00:54:36.798Z,1029.99
2017-01-20T00:55:02.894Z,1030.02
2017-01-20T00:55:28.988Z,1030.01
2017-01-20T00:55:55.099Z,1029.97
2017-01-20T00:56:21.194Z,1029.92
2017-01-20T00:56:47.290Z,1029.94
2017-01-20T00:57:13.398Z,1029.95
2017-01-20T00:57:39.496Z,1029.96
2017-01-20T00:58:05.600Z,1029.97
2017-01-20T00:58:31.693Z,1029.99
2017-01-20T00:58:57.780Z,1029.93
2017-01-20T00:59:23.890Z,1029.94
2017-01-20T00:59:49.992Z,1029.93
2017-01-20T01:00:16.085Z,1029.95
2017-01-20T01:00:42.188Z,1029.96
2017-01-20T01:01:08.283Z,1029.97
2017-01-20T01:01:34.375Z,1029.94
2017-01-20T01:02:00.476Z,1029.89
2017-01-20T01:02:26.578Z,1029.89
2017-01-20T01:02:52.667Z,1029.91
2017-01-20T01:03:18.765Z,1029.89
2017-01-20T01:03:44.857Z,1029.87
2017-01-20T01:04:10.968Z,1029.89
2017-01-20T01:04:37.074Z,1029.85
2017-01-20T01:05:03.161Z,1029.94
2017-01-20T01:05:29.268Z,1029.93
2017-01-20T01:05:55.371Z,1029.94
2017-01-20T01:06:21.489Z,1029.96
2017-01-20T01:06:47.582Z,1029.91
2017-01-20T01:07:13.688Z,1029.92
2017-01-20T01:07:39.792Z,1029.9
2017-01-20T01:08:05.889Z,1029.89
2017-01-20T01:08:31.996Z,1029.89
2017-01-20T01:08:58.088Z,1029.88
2017-01-20T01:09:24.197Z,1029.87
2017-01-20T01:09:50.282Z,1029.88
2017-01-20T01:10:16.380Z,1029.85
2017-01-20T01:10:42.489Z,1029.82
2017-01-20T01:11:08.581Z,1029.86
2017-01-20T01:11:34.678Z,1029.84
2017-01-20T01:12:00.783Z,1029.84
2017-01-20T01:12:26.878Z,1029.84
2017-01-20T01:12:52.967Z,1029.87
2017-01-20T01:13:19.076Z,1029.83
2017-01-20T01:13:45.172Z,1029.83
2017-01-20T01:14:11.263Z,1029.87
2017-01-20T01:14:37.372Z,1029.83
2017-01-20T01:15:03.463Z,1029.85
2017-01-20T01:15:29.571Z,1029.86
2017-01-20T01:15:55.666Z,1029.85
2017-01-20T01:16:21.759Z,1029.88
2017-01-20T01:16:47.869Z,1029.88
2017-01-20T01:17:13.969Z,1029.89
2017-01-20T01:17:40.058Z,1029.85
2017-01-20T01:18:06.164Z,1029.85
2017-01-20T01:18:32.263Z,1029.87
2017-01-20T01:18:58.350Z,1029.84
2017-01-20T01:19:24.454Z,1029.88
2017-01-20T01:19:50.563Z,1029.85
2017-01-20T01:20:16.649Z,1029.88
2017-01-20T01:20:42.748Z,1029.91
2017-01-20T01:21:08.840Z,1029.88
2017-01-20T01:21:34.946Z,1029.91
2017-01-20T01:22:01.048Z,1029.91
2017-01-20T01:22:27.170Z,1029.84
2017-01-20T01:22:53.273Z,1029.88
2017-01-20T01:23:19.373Z,1029.87
2017-01-20T01:23:45.465Z,1029.91
2017-01-20T01:24:11.564Z,1029.92
2017-01-20T01:24:37.676Z,1029.92
2017-01-20T01:25:03.760Z,1029.89
2017-01-20T01:25:29.853Z,1029.9
2017-01-20T01:25:55.953Z,1029.93
2017-01-20T01:26:22.061Z,1029.94
2017-01-20T01:26:48.162Z,1029.94
2017-01-20T01:27:14.253Z,1029.94
2017-01-20T01:27:40.356Z,1029.97
2017-01-20T01:28:06.487Z,1029.97
2017-01-20T01:28:32.581Z,1029.98
2017-01-20T01:28:58.680Z,1029.98
2017-01-20T01:29:24.781Z,1029.99
2017-01-20T01:29:50.870Z,1030
2017-01-20T01:30:16.958Z,1029.96
2017-01-20T01:30:43.072Z,1030.01
2017-01-20T01:31:09.175Z,1029.99
2017-01-20T01:31:35.278Z,1029.98
2017-01-20T01:32:01.367Z,1029.98
2017-01-20T01:32:27.466Z,1030.01
2017-01-20T01:32:53.572Z,1029.96
2017-01-20T01:33:19.668Z,1029.98
2017-01-20T01:33:45.755Z,1030.02
2017-01-20T01:34:11.865Z,1030.02
2017-01-20T01:34:37.960Z,1030.03
2017-01-20T01:35:04.057Z,1030.07
2017-01-20T01:35:30.164Z,1029.98
2017-01-20T01:35:56.265Z,1030.03
2017-01-20T01:36:22.352Z,1030.02
2017-01-20T01:36:48.455Z,1030.01
2017-01-20T01:37:14.564Z,1029.98
2017-01-20T01:37:40.649Z,1030
2017-01-20T01:38:06.752Z,1030.03
2017-01-20T01:38:32.859Z,1029.98
2017-01-20T01:38:58.949Z,1030
2017-01-20T01:39:25.044Z,1029.98
2017-01-20T01:39:51.148Z,1030
2017-01-20T01:40:17.244Z,1029.96
2017-01-20T01:40:43.341Z,1029.99
2017-01-20T01:41:09.451Z,1029.97
2017-01-20T01:41:35.547Z,1029.96
2017-01-20T01:42:01.632Z,1030
2017-01-20T01:42:27.740Z,1029.97
2017-01-20T01:42:53.835Z,1029.96
2017-01-20T01:43:19.940Z,1029.93
2017-01-20T01:43:46.033Z,1029.93
2017-01-20T01:44:12.120Z,1029.93
2017-01-20T01:44:38.229Z,1030
2017-01-20T01:45:04.320Z,1029.94
2017-01-20T01:45:30.412Z,1029.95
2017-01-20T01:45:56.515Z,1029.95
2017-01-20T01:46:22.611Z,1029.96
2017-01-20T01:46:48.698Z,1029.93
2017-01-20T01:47:14.806Z,1029.94
2017-01-20T01:47:40.912Z,1029.86
2017-01-20T01:48:06.994Z,1029.87
2017-01-20T01:48:33.092Z,1029.88
2017-01-20T01:48:59.185Z,1029.91
2017-01-20T01:49:25.293Z,1029.88
2017-01-20T01:49:51.401Z,1029.9
2017-01-20T01:50:17.488Z,1029.9
2017-01-20T01:50:43.592Z,1029.86
2017-01-20T01:51:09.703Z,1029.85
2017-01-20T01:51:35.788Z,1029.85
2017-01-20T01:52:01.899Z,1029.87
2017-01-20T01:52:27.999Z,1029.89
2017-01-20T01:52:54.090Z,1029.92
2017-01-20T01:53:20.182Z,1029.9
2017-01-20T01:53:46.284Z,1029.86
2017-01-20T01:54:12.391Z,1029.87
2017-01-20T01:54:38.500Z,1029.93
2017-01-20T01:55:04.584Z,1029.9
2017-01-20T01:55:30.684Z,1029.92
2017-01-20T01:55:56.793Z,1029.87
2017-01-20T01:56:22.905Z,1029.89
2017-01-20T01:56:49.005Z,1029.86
2017-01-20T01:57:15.111Z,1029.93
2017-01-20T01:57:41.205Z,1029.92
2017-01-20T01:58:07.290Z,1029.84
2017-01-20T01:58:33.407Z,1029.85
2017-01-20T01:58:59.507Z,1029.9
2017-01-20T01:59:25.610Z,1029.85
2017-01-20T01:59:51.693Z,1029.85
2017-01-20T02:00:17.792Z,1029.9
2017-01-20T02:00:43.896Z,1029.9
2017-01-20T02:01:09.995Z,1029.9
2017-01-20T02:01:36.089Z,1029.88
2017-01-20T02:02:02.196Z,1029.88
2017-01-20T02:02:28.291Z,1029.91
2017-01-20T02:02:54.378Z,1029.92
2017-01-20T02:03:20.489Z,1029.87
2017-01-20T02:03:46.592Z,1029.92
2017-01-20T02:04:12.686Z,1029.91
2017-01-20T02:04:38.786Z,1029.92
2017-01-20T02:05:04.876Z,1029.94
2017-01-20T02:05:30.990Z,1029.95
2017-01-20T02:05:57.084Z,1029.95
2017-01-20T02:06:23.180Z,1029.94
2017-01-20T02:06:49.281Z,1029.97
2017-01-20T02:07:15.381Z,1029.92
2017-01-20T02:07:41.469Z,1029.93
2017-01-20T02:08:07.573Z,1029.96
2017-01-20T02:08:33.684Z,1029.94
2017-01-20T02:08:59.766Z,1029.92
2017-01-20T02:09:25.866Z,1029.94
2017-01-20T02:09:51.974Z,1029.93
2017-01-20T02:10:18.059Z,1029.94
2017-01-20T02:10:44.162Z,1029.93
2017-01-20T02:11:10.250Z,1029.94
2017-01-20T02:11:36.353Z,1029.93
2017-01-20T02:12:02.459Z,1029.97
2017-01-20T02:12:28.551Z,1029.92
2017-01-20T02:12:54.652Z,1029.95
2017-01-20T02:13:20.756Z,1029.95
2017-01-20T02:13:46.850Z,1029.97
2017-01-20T02:14:12.942Z,1029.93
2017-01-20T02:14:39.050Z,1029.91
2017-01-20T02:15:05.140Z,1029.93
2017-01-20T02:15:31.228Z,1029.95
2017-01-20T02:15:57.333Z,1029.94
2017-01-20T02:16:23.425Z,1029.93
2017-01-20T02:16:49.538Z,1029.9
2017-01-20T02:17:15.627Z,1029.89
2017-01-20T02:17:41.727Z,1029.9
2017-01-20T02:18:07.827Z,1029.88
2017-01-20T02:18:33.919Z,1029.89
2017-01-20T02:19:00.008Z,1029.91
2017-01-20T02:19:26.118Z,1029.91
2017-01-20T02:19:52.220Z,1029.89
2017-01-20T02:20:18.306Z,1029.91
2017-01-20T02:20:44.413Z,1029.89
2017-01-20T02:21:10.511Z,1029.88
2017-01-20T02:21:36.599Z,1029.92
2017-01-20T02:22:02.709Z,1029.94
2017-01-20T02:22:28.817Z,1029.94
2017-01-20T02:22:54.904Z,1029.92
2017-01-20T02:23:21.002Z,1029.91
2017-01-20T02:23:47.107Z,1029.9
2017-01-20T02:24:13.201Z,1029.92
2017-01-20T02:24:39.299Z,1029.91
2017-01-20T02:25:05.402Z,1029.9
2017-01-20T02:25:31.489Z,1029.93
2017-01-20T02:25:57.582Z,1029.92
2017-01-20T02:26:23.715Z,1029.93
2017-01-20T02:26:49.816Z,1029.9
2017-01-20T02:27:15.958Z,1029.9
2017-01-20T02:27:42.034Z,1029.91
2017-01-20T02:28:08.132Z,1029.87
2017-01-20T02:28:34.237Z,1029.9
2017-01-20T02:29:00.331Z,1029.96
2017-01-20T02:29:26.424Z,1029.9
2017-01-20T02:29:52.533Z,1029.9
2017-01-20T02:30:18.659Z,1029.89
2017-01-20T02:30:44.751Z,1029.9
2017-01-20T02:31:10.855Z,1029.9
2017-01-20T02:31:36.954Z,1029.86
2017-01-20T02:32:03.046Z,1029.92
2017-01-20T02:32:29.151Z,1029.92
2017-01-20T02:32:55.241Z,1029.87
2017-01-20T02:33:21.356Z,1029.91
2017-01-20T02:33:47.455Z,1029.87
2017-01-20T02:34:13.542Z,1029.89
2017-01-20T02:34:39.649Z,1029.9
2017-01-20T02:35:05.748Z,1029.89
2017-01-20T02:35:31.837Z,1029.87
2017-01-20T02:35:57.939Z,1029.88
2017-01-20T02:36:24.045Z,1029.89
2017-01-20T02:36:50.137Z,1029.88
2017-01-20T02:37:16.241Z,1029.89
2017-01-20T02:37:42.345Z,1029.86
2017-01-20T02:38:08.435Z,1029.86
2017-01-20T02:38:34.543Z,1029.88
2017-01-20T02:39:00.626Z,1029.86
2017-01-20T02:39:26.727Z,1029.89
2017-01-20T02:39:52.832Z,1029.88
2017-01-20T02:40:18.923Z,1029.86
2017-01-20T02:40:45.025Z,1029.83
2017-01-20T02:41:11.129Z,1029.85
2017-01-20T02:41:37.216Z,1029.84
2017-01-20T02:42:03.335Z,1029.85
2017-01-20T02:42:29.438Z,1029.83
2017-01-20T02:42:55.536Z,1029.85
2017-01-20T02:43:21.632Z,1029.82
2017-01-20T02:43:47.732Z,1029.85
2017-01-20T02:44:13.834Z,1029.84
2017-01-20T02:44:39.947Z,1029.83
2017-01-20T02:45:06.040Z,1029.83
2017-01-20T02:45:32.129Z,1029.84
2017-01-20T02:45:58.234Z,1029.83
2017-01-20T02:46:24.320Z,1029.85
2017-01-20T02:46:50.414Z,1029.83
2017-01-20T02:47:16.519Z,1029.8
2017-01-20T02:47:42.617Z,1029.83
2017-01-20T02:48:08.704Z,1029.81
2017-01-20T02:48:34.816Z,1029.87
2017-01-20T02:49:00.917Z,1029.82
2017-01-20T02:49:27.017Z,1029.86
2017-01-20T02:49:53.114Z,1029.87
2017-01-20T02:50:19.200Z,1029.82
2017-01-20T02:50:45.308Z,1029.85
2017-01-20T02:51:11.437Z,1029.85
2017-01-20T02:51:37.533Z,1029.85
2017-01-20T02:52:03.631Z,1029.81
2017-01-20T02:52:30.024Z,1029.8
2017-01-20T02:52:56.493Z,1029.8
2017-01-20T02:53:22.593Z,1029.8
2017-01-20T02:53:48.702Z,1029.81
2017-01-20T02:54:14.784Z,1029.86
2017-01-20T02:54:40.883Z,1029.8
2017-01-20T02:55:06.978Z,1029.82
2017-01-20T02:55:33.084Z,1029.81
2017-01-20T02:55:59.184Z,1029.84
2017-01-20T02:56:25.274Z,1029.78
2017-01-20T02:56:51.371Z,1029.81
2017-01-20T02:57:17.477Z,1029.77
2017-01-20T02:57:43.566Z,1029.81
2017-01-20T02:58:09.668Z,1029.78
2017-01-20T02:58:35.768Z,1029.79
2017-01-20T02:59:01.861Z,1029.81
2017-01-20T02:59:27.956Z,1029.79
2017-01-20T02:59:54.063Z,1029.78
2017-01-20T03:00:20.158Z,1029.77
2017-01-20T03:00:46.259Z,1029.76
2017-01-20T03:01:12.341Z,1029.73
2017-01-20T03:01:38.445Z,1029.76
2017-01-20T03:02:04.544Z,1029.76
2017-01-20T03:02:30.631Z,1029.71
2017-01-20T03:02:56.724Z,1029.64
2017-01-20T03:03:22.830Z,1029.69
2017-01-20T03:03:48.919Z,1029.67
2017-01-20T03:04:15.016Z,1029.67
2017-01-20T03:04:41.121Z,1029.68
2017-01-20T03:05:07.222Z,1029.7
2017-01-20T03:05:33.306Z,1029.73
2017-01-20T03:05:59.413Z,1029.73
2017-01-20T03:06:25.515Z,1029.72
2017-01-20T03:06:51.598Z,1029.74
2017-01-20T03:07:17.704Z,1029.79
2017-01-20T03:07:43.809Z,1029.72
2017-01-20T03:08:09.892Z,1029.75
2017-01-20T03:08:35.989Z,1029.75
2017-01-20T03:09:02.091Z,1029.74
2017-01-20T03:09:28.185Z,1029.72
2017-01-20T03:09:54.283Z,1029.72
2017-01-20T03:10:20.393Z,1029.71
2017-01-20T03:10:46.481Z,1029.73
2017-01-20T03:11:12.568Z,1029.71
2017-01-20T03:11:38.677Z,1029.73
2017-01-20T03:12:04.773Z,1029.71
2017-01-20T03:12:30.879Z,1029.69
2017-01-20T03:12:56.963Z,1029.7
2017-01-20T03:13:23.066Z,1029.71
2017-01-20T03:13:49.172Z,1029.7
2017-01-20T03:14:15.264Z,1029.69
2017-01-20T03:14:41.355Z,1029.69
2017-01-20T03:15:07.458Z,1029.7
2017-01-20T03:15:33.558Z,1029.69
2017-01-20T03:15:59.646Z,1029.7
2017-01-20T03:16:25.752Z,1029.68
2017-01-20T03:16:51.855Z,1029.69
2017-01-20T03:17:17.953Z,1029.71
2017-01-20T03:17:44.045Z,1029.67
2017-01-20T03:18:10.135Z,1029.72
2017-01-20T03:18:36.249Z,1029.64
2017-01-20T03:19:02.342Z,1029.67
2017-01-20T03:19:28.427Z,1029.63
2017-01-20T03:19:54.537Z,1029.64
2017-01-20T03:20:20.631Z,1029.68
2017-01-20T03:20:46.721Z,1029.69
2017-01-20T03:21:12.828Z,1029.65
2017-01-20T03:21:38.935Z,1029.66
2017-01-20T03:22:05.016Z,1029.66
2017-01-20T03:22:31.116Z,1029.71
2017-01-20T03:22:57.208Z,1029.68
2017-01-20T03:23:23.315Z,1029.65
2017-01-20T03:23:49.412Z,1029.68
2017-01-20T03:24:15.506Z,1029.71
2017-01-20T03:24:41.610Z,1029.66
2017-01-20T03:25:07.718Z,1029.68
2017-01-20T03:25:33.805Z,1029.66
2017-01-20T03:25:59.909Z,1029.65
2017-01-20T03:26:26.009Z,1029.62
2017-01-20T03:26:52.100Z,1029.64
2017-01-20T03:27:18.193Z,1029.66
2017-01-20T03:27:44.304Z,1029.62
2017-01-20T03:28:10.396Z,1029.6
2017-01-20T03:28:36.495Z,1029.63
2017-01-20T03:29:02.591Z,1029.63
2017-01-20T03:29:28.687Z,1029.62
2017-01-20T03:29:54.794Z,1029.61
2017-01-20T03:30:20.882Z,1029.62
2017-01-20T03:30:46.977Z,1029.64
2017-01-20T03:31:13.080Z,1029.64
2017-01-20T03:31:39.176Z,1029.67
2017-01-20T03:32:05.268Z,1029.68
2017-01-20T03:32:31.384Z,1029.66
2017-01-20T03:32:57.477Z,1029.68
2017-01-20T03:33:23.566Z,1029.68
2017-01-20T03:33:49.673Z,1029.7
2017-01-20T03:34:15.767Z,1029.67
2017-01-20T03:34:41.870Z,1029.7
2017-01-20T03:35:07.996Z,1029.7
2017-01-20T03:35:34.080Z,1029.69
2017-01-20T03:36:00.194Z,1029.72
2017-01-20T03:36:26.289Z,1029.7
2017-01-20T03:36:52.379Z,1029.68
2017-01-20T03:37:18.481Z,1029.69
2017-01-20T03:37:44.583Z,1029.7
2017-01-20T03:38:10.670Z,1029.69
2017-01-20T03:38:36.777Z,1029.72
2017-01-20T03:39:02.879Z,1029.71
2017-01-20T03:39:28.979Z,1029.7
2017-01-20T03:39:55.080Z,1029.7
2017-01-20T03:40:21.189Z,1029.7
2017-01-20T03:40:47.276Z,1029.69
2017-01-20T03:41:13.368Z,1029.69
2017-01-20T03:41:39.477Z,1029.69
2017-01-20T03:42:05.579Z,1029.72
2017-01-20T03:42:31.658Z,1029.71
2017-01-20T03:42:57.773Z,1029.75
2017-01-20T03:43:23.870Z,1029.72
2017-01-20T03:43:49.962Z,1029.72
2017-01-20T03:44:16.065Z,1029.71
2017-01-20T03:44:42.161Z,1029.69
2017-01-20T03:45:08.264Z,1029.73
2017-01-20T03:45:34.358Z,1029.75
2017-01-20T03:46:00.441Z,1029.8
2017-01-20T03:46:26.549Z,1029.77
2017-01-20T03:46:52.649Z,1029.8
2017-01-20T03:47:18.739Z,1029.75
2017-01-20T03:47:44.850Z,1029.78
2017-01-20T03:48:10.951Z,1029.76
2017-01-20T03:48:37.039Z,1029.78
2017-01-20T03:49:03.144Z,1029.74
2017-01-20T03:49:29.248Z,1029.71
2017-01-20T03:49:55.338Z,1029.72
2017-01-20T03:50:21.437Z,1029.76
2017-01-20T03:50:47.545Z,1029.76
2017-01-20T03:51:13.633Z,1029.74
2017-01-20T03:51:39.736Z,1029.72
2017-01-20T03:52:05.838Z,1029.77
2017-01-20T03:52:31.927Z,1029.75
2017-01-20T03:52:58.018Z,1029.71
2017-01-20T03:53:24.125Z,1029.76
2017-01-20T03:53:50.225Z,1029.73
2017-01-20T03:54:16.310Z,1029.74
2017-01-20T03:54:42.416Z,1029.74
2017-01-20T03:55:08.512Z,1029.71
2017-01-20T03:55:34.605Z,1029.75
2017-01-20T03:56:00.706Z,1029.77
2017-01-20T03:56:26.793Z,1029.71
2017-01-20T03:56:52.898Z,1029.7
2017-01-20T03:57:18.996Z,1029.75
2017-01-20T03:57:45.087Z,1029.74
2017-01-20T03:58:11.194Z,1029.71
2017-01-20T03:58:37.294Z,1029.78
2017-01-20T03:59:03.388Z,1029.71
2017-01-20T03:59:29.486Z,1029.72
2017-01-20T03:59:55.596Z,1029.72
2017-01-20T04:00:21.702Z,1029.67
2017-01-20T04:00:47.804Z,1029.66
2017-01-20T04:01:13.905Z,1029.68
2017-01-20T04:01:40.000Z,1029.71
2017-01-20T04:02:06.107Z,1029.74
2017-01-20T04:02:32.190Z,1029.71
2017-01-20T04:02:58.292Z,1029.75
2017-01-20T04:03:24.396Z,1029.78
2017-01-20T04:03:50.487Z,1029.7
2017-01-20T04:04:16.587Z,1029.75
2017-01-20T04:04:42.699Z,1029.75
2017-01-20T04:05:08.785Z,1029.72
2017-01-20T04:05:34.880Z,1029.71
2017-01-20T04:06:00.984Z,1029.72
2017-01-20T04:06:27.085Z,1029.73
2017-01-20T04:06:53.177Z,1029.73
2017-01-20T04:07:19.271Z,1029.75
2017-01-20T04:07:45.374Z,1029.73
2017-01-20T04:08:11.480Z,1029.78
2017-01-20T04:08:37.576Z,1029.74
2017-01-20T04:09:03.671Z,1029.71
2017-01-20T04:09:29.773Z,1029.73
2017-01-20T04:09:55.867Z,1029.73
2017-01-20T04:10:21.956Z,1029.74
2017-01-20T04:10:48.074Z,1029.72
2017-01-20T04:11:14.169Z,1029.72
2017-01-20T04:11:40.261Z,1029.73
2017-01-20T04:12:06.375Z,1029.71
2017-01-20T04:12:32.466Z,1029.72
2017-01-20T04:12:58.569Z,1029.68
2017-01-20T04:13:24.660Z,1029.78
2017-01-20T04:13:50.766Z,1029.76
2017-01-20T04:14:16.866Z,1029.75
2017-01-20T04:14:42.964Z,1029.74
2017-01-20T04:15:09.050Z,1029.7
2017-01-20T04:15:35.157Z,1029.7
2017-01-20T04:16:01.258Z,1029.71
2017-01-20T04:16:27.351Z,1029.72
2017-01-20T04:16:53.454Z,1029.69
2017-01-20T04:17:19.557Z,1029.69
2017-01-20T04:17:45.641Z,1029.71
2017-01-20T04:18:11.743Z,1029.71
2017-01-20T04:18:37.838Z,1029.68
2017-01-20T04:19:03.943Z,1029.7
2017-01-20T04:19:30.036Z,1029.67
2017-01-20T04:19:56.134Z,1029.66
2017-01-20T04:20:22.233Z,1029.68
2017-01-20T04:20:48.345Z,1029.72
2017-01-20T04:21:14.425Z,1029.7
2017-01-20T04:21:40.532Z,1029.7
2017-01-20T04:22:06.632Z,1029.69
2017-01-20T04:22:32.719Z,1029.69
2017-01-20T04:22:58.813Z,1029.73
2017-01-20T04:23:24.919Z,1029.73
2017-01-20T04:23:51.013Z,1029.68
2017-01-20T04:24:17.114Z,1029.7
2017-01-20T04:24:43.206Z,1029.7
2017-01-20T04:25:09.302Z,1029.69
2017-01-20T04:25:35.414Z,1029.69
2017-01-20T04:26:01.497Z,1029.7
2017-01-20T04:26:27.592Z,1029.72
2017-01-20T04:26:53.696Z,1029.62
2017-01-20T04:27:19.794Z,1029.67
2017-01-20T04:27:45.881Z,1029.65
2017-01-20T04:28:11.990Z,1029.67
2017-01-20T04:28:38.086Z,1029.65
2017-01-20T04:29:04.176Z,1029.63
2017-01-20T04:29:30.290Z,1029.6
2017-01-20T04:29:56.386Z,1029.63
2017-01-20T04:30:22.487Z,1029.66
2017-01-20T04:30:48.582Z,1029.65
2017-01-20T04:31:14.669Z,1029.66
2017-01-20T04:31:40.783Z,1029.63
2017-01-20T04:32:06.876Z,1029.63
2017-01-20T04:32:32.970Z,1029.64
2017-01-20T04:32:59.072Z,1029.61
2017-01-20T04:33:25.172Z,1029.62
2017-01-20T04:33:51.263Z,1029.61
2017-01-20T04:34:17.361Z,1029.62
2017-01-20T04:34:43.472Z,1029.6
2017-01-20T04:35:09.560Z,1029.62
2017-01-20T04:35:35.664Z,1029.61
2017-01-20T04:36:01.766Z,1029.6
2017-01-20T04:36:27.859Z,1029.62
2017-01-20T04:36:53.955Z,1029.58
2017-01-20T04:37:20.065Z,1029.56
2017-01-20T04:37:46.160Z,1029.58
2017-01-20T04:38:12.251Z,1029.55
2017-01-20T04:38:38.357Z,1029.57
2017-01-20T04:39:04.455Z,1029.58
2017-01-20T04:39:30.546Z,1029.56
2017-01-20T04:39:56.653Z,1029.55
2017-01-20T04:40:22.752Z,1029.61
2017-01-20T04:40:48.851Z,1029.56
2017-01-20T04:41:14.942Z,1029.55
2017-01-20T04:41:41.034Z,1029.56
2017-01-20T04:42:07.138Z,1029.55
2017-01-20T04:42:33.241Z,1029.56
2017-01-20T04:42:59.327Z,1029.52
2017-01-20T04:43:25.433Z,1029.54
2017-01-20T04:43:51.536Z,1029.47
2017-01-20T04:44:17.630Z,1029.49
2017-01-20T04:44:43.739Z,1029.51
2017-01-20T04:45:09.850Z,1029.5
2017-01-20T04:45:35.943Z,1029.51
2017-01-20T04:46:02.037Z,1029.52
2017-01-20T04:46:28.136Z,1029.51
2017-01-20T04:46:54.238Z,1029.53
2017-01-20T04:47:20.343Z,1029.53
2017-01-20T04:47:46.429Z,1029.54
2017-01-20T04:48:12.538Z,1029.49
2017-01-20T04:48:38.644Z,1029.47
2017-01-20T04:49:04.727Z,1029.53
2017-01-20T04:49:30.830Z,1029.53
2017-01-20T04:49:56.939Z,1029.52
2017-01-20T04:50:23.034Z,1029.52
2017-01-20T04:50:49.157Z,1029.5
2017-01-20T04:51:15.232Z,1029.51
2017-01-20T04:51:41.326Z,1029.54
2017-01-20T04:52:07.427Z,1029.54
2017-01-20T04:52:33.520Z,1029.54
2017-01-20T04:52:59.617Z,1029.57
2017-01-20T04:53:25.726Z,1029.55
2017-01-20T04:53:51.813Z,1029.54
2017-01-20T04:54:17.906Z,1029.52
2017-01-20T04:54:44.010Z,1029.55
2017-01-20T04:55:10.099Z,1029.53
2017-01-20T04:55:36.189Z,1029.53
2017-01-20T04:56:02.304Z,1029.51
2017-01-20T04:56:28.402Z,1029.49
2017-01-20T04:56:54.494Z,1029.53
2017-01-20T04:57:20.599Z,1029.51
2017-01-20T04:57:46.699Z,1029.53
2017-01-20T04:58:12.793Z,1029.55
2017-01-20T04:58:38.896Z,1029.57
2017-01-20T04:59:05.006Z,1029.53
2017-01-20T04:59:31.090Z,1029.5
2017-01-20T04:59:57.192Z,1029.5
2017-01-20T05:00:23.299Z,1029.48
2017-01-20T05:00:49.388Z,1029.51
2017-01-20T05:01:15.489Z,1029.52
2017-01-20T05:01:41.596Z,1029.48
2017-01-20T05:02:07.690Z,1029.51
2017-01-20T05:02:33.776Z,1029.5
2017-01-20T05:02:59.882Z,1029.5
2017-01-20T05:03:25.979Z,1029.5
2017-01-20T05:03:52.082Z,1029.51
2017-01-20T05:04:18.178Z,1029.5
2017-01-20T05:04:44.275Z,1029.51
2017-01-20T05:05:10.387Z,1029.53
2017-01-20T05:05:36.473Z,1029.51
2017-01-20T05:06:02.568Z,1029.48
2017-01-20T05:06:28.673Z,1029.48
2017-01-20T05:06:54.772Z,1029.49
2017-01-20T05:07:20.862Z,1029.48
2017-01-20T05:07:46.972Z,1029.44
2017-01-20T05:08:13.073Z,1029.47
2017-01-20T05:08:39.173Z,1029.46
2017-01-20T05:09:05.266Z,1029.47
2017-01-20T05:09:31.363Z,1029.47
2017-01-20T05:09:57.469Z,1029.47
2017-01-20T05:10:23.570Z,1029.47
2017-01-20T05:10:49.657Z,1029.5
2017-01-20T05:11:15.761Z,1029.48
2017-01-20T05:11:41.859Z,1029.45
2017-01-20T05:12:07.953Z,1029.48
2017-01-20T05:12:34.052Z,1029.49
2017-01-20T05:13:00.157Z,1029.48
2017-01-20T05:13:26.244Z,1029.47
2017-01-20T05:13:52.344Z,1029.48
2017-01-20T05:14:18.437Z,1029.49
2017-01-20T05:14:44.542Z,1029.48
2017-01-20T05:15:10.639Z,1029.51
2017-01-20T05:15:36.733Z,1029.47
2017-01-20T05:16:02.833Z,1029.48
2017-01-20T05:16:28.944Z,1029.51
2017-01-20T05:16:55.030Z,1029.5
2017-01-20T05:17:21.129Z,1029.48